createdAt,value
2019-05-15T00:03:08.854Z,102265.62
2019-05-15T00:08:33.703Z,102258.49
2019-05-15T00:13:58.942Z,102259.52
2019-05-15T00:19:24.438Z,102259.58
2019-05-15T00:24:49.010Z,102254.70
2019-05-15T00:30:13.910Z,102253.28
2019-05-15T00:35:39.268Z,102261.23
2019-05-15T00:41:04.542Z,102248.95
2019-05-15T00:46:29.134Z,102252.10
2019-05-15T00:51:54.052Z,102259.19
2019-05-15T00:57:19.314Z,102255.51
2019-05-15T01:02:44.951Z,102258.15
2019-05-15T01:08:10.110Z,102250.97
2019-05-15T01:13:34.728Z,102247.20
2019-05-15T01:18:59.503Z,102247.55
2019-05-15T01:24:24.533Z,102244.41
2019-05-15T01:29:49.545Z,102233.18
2019-05-15T01:35:13.993Z,102230.74
2019-05-15T01:40:38.853Z,102226.11
2019-05-15T01:46:02.452Z,102218.20
2019-05-15T01:51:28.584Z,102219.19
2019-05-15T01:56:52.712Z,102216.05
2019-05-15T02:02:18.687Z,102217.39
2019-05-15T02:07:43.372Z,102208.27
2019-05-15T02:13:08.711Z,102197.20
2019-05-15T02:18:32.954Z,102193.76
2019-05-15T02:23:58.769Z,102190.89
2019-05-15T02:29:25.113Z,102182.86
2019-05-15T02:34:50.173Z,102183.82
2019-05-15T02:40:15.325Z,102180.84
2019-05-15T02:45:42.300Z,102180.63
2019-05-15T02:51:05.251Z,102179.39
2019-05-15T02:56:29.909Z,102182.47
2019-05-15T03:01:53.799Z,102183.02
2019-05-15T03:07:19.253Z,102181.37
2019-05-15T03:12:43.359Z,102181.78
2019-05-15T03:18:09.635Z,102182.17
2019-05-15T03:23:33.566Z,102182.17
2019-05-15T03:28:59.012Z,102186.59
2019-05-15T03:34:30.753Z,102181.72
2019-05-15T03:39:51.864Z,102183.77
2019-05-15T03:45:14.002Z,102181.39
2019-05-15T03:50:40.330Z,102172.76
2019-05-15T03:56:03.247Z,102171.97
2019-05-15T04:01:34.066Z,102171.56
2019-05-15T04:07:02.979Z,102164.34
2019-05-15T04:12:29.024Z,102162.67
2019-05-15T04:17:53.500Z,102167.02
2019-05-15T04:23:23.103Z,102160.18
2019-05-15T04:28:49.393Z,102159.31
2019-05-15T04:34:14.088Z,102147.12
2019-05-15T04:39:39.956Z,102144.86
2019-05-15T04:45:04.883Z,102143.30
2019-05-15T04:50:29.392Z,102150.08
2019-05-15T04:55:54.102Z,102139.09
2019-05-15T05:01:20.187Z,102142.47
2019-05-15T05:06:44.766Z,102141.20
2019-05-15T05:12:09.461Z,102144.44
2019-05-15T05:17:33.401Z,102147.65
2019-05-15T05:22:58.943Z,102143.55
2019-05-15T05:28:23.339Z,102140.19
2019-05-15T05:33:48.646Z,102142.52
2019-05-15T05:39:17.673Z,102139.80
2019-05-15T05:44:42.766Z,102137.53
2019-05-15T05:50:08.091Z,102138.98
2019-05-15T05:55:32.048Z,102135.92
2019-05-15T06:00:58.553Z,102139.17
2019-05-15T06:06:23.635Z,102128.05
2019-05-15T06:11:48.923Z,102122.16
2019-05-15T06:17:13.482Z,102116.15
2019-05-15T06:22:38.737Z,102115.60
2019-05-15T06:28:04.843Z,102112.77
2019-05-15T06:33:28.613Z,102103.25
2019-05-15T06:38:53.512Z,102099.41
2019-05-15T06:44:18.824Z,102097.42
2019-05-15T06:49:42.759Z,102092.30
2019-05-15T06:55:09.108Z,102105.79
2019-05-15T07:00:35.740Z,102111.52
2019-05-15T07:06:00.061Z,102106.33
2019-05-15T07:11:25.445Z,102097.59
2019-05-15T07:16:50.092Z,102102.50
2019-05-15T07:22:14.013Z,102088.81
2019-05-15T07:27:39.084Z,102083.27
2019-05-15T07:33:03.050Z,102083.54
2019-05-15T07:38:28.227Z,102081.25
2019-05-15T07:43:52.514Z,102084.63
2019-05-15T07:49:18.141Z,102090.27
2019-05-15T07:54:42.724Z,102083.10
2019-05-15T08:00:09.591Z,102078.14
2019-05-15T08:05:34.158Z,102095.98
2019-05-15T08:10:58.038Z,102094.25
2019-05-15T08:16:22.137Z,102086.47
2019-05-15T08:21:51.655Z,102074.84
2019-05-15T08:27:12.984Z,102070.52
2019-05-15T08:32:38.915Z,102073.19
2019-05-15T08:38:02.967Z,102074.55
2019-05-15T08:43:29.123Z,102072.81
2019-05-15T08:48:53.361Z,102060.39
2019-05-15T08:54:18.365Z,102060.87
2019-05-15T08:59:42.150Z,102051.45
2019-05-15T09:05:08.469Z,102038.42
2019-05-15T09:10:32.438Z,102044.24
2019-05-15T09:15:58.709Z,102032.78
2019-05-15T09:21:21.853Z,102031.33
2019-05-15T09:26:45.461Z,102025.89
2019-05-15T09:32:12.373Z,102013.50
2019-05-15T09:37:34.572Z,102012.61
2019-05-15T09:42:59.248Z,102012.39
2019-05-15T09:48:23.530Z,102007.68
2019-05-15T09:53:48.553Z,102002.58
2019-05-15T09:59:12.894Z,101995.91
2019-05-15T10:04:38.861Z,101986.56
2019-05-15T10:10:02.382Z,101985.41
2019-05-15T10:15:25.991Z,101983.83
2019-05-15T10:20:50.707Z,101977.38
2019-05-15T10:26:14.925Z,101966.67
2019-05-15T10:31:39.831Z,101959.66
2019-05-15T10:37:04.275Z,101962.98
2019-05-15T10:42:29.127Z,101950.92
2019-05-15T10:47:53.950Z,101953.11
2019-05-15T10:53:19.159Z,101940.56
2019-05-15T10:58:42.932Z,101936.38
2019-05-15T11:04:09.105Z,101933.86
2019-05-15T11:09:33.842Z,101927.92
2019-05-15T11:14:57.630Z,101924.31
2019-05-15T11:20:22.319Z,101916.91
2019-05-15T11:25:48.708Z,101907.15
2019-05-15T11:31:12.554Z,101905.59
2019-05-15T11:36:38.665Z,101896.59
2019-05-15T11:42:02.672Z,101900.93
2019-05-15T11:47:27.876Z,101902.70
2019-05-15T11:52:53.367Z,101887.03
2019-05-15T11:58:19.046Z,101869.65
2019-05-15T12:03:43.987Z,101873.25
2019-05-15T12:09:09.235Z,101869.40
2019-05-15T12:14:33.963Z,101873.37
2019-05-15T12:25:28.494Z,101851.23
2019-05-15T12:30:49.789Z,101861.59
2019-05-15T12:36:14.600Z,101847.51
2019-05-15T13:03:21.602Z,101841.48
2019-05-15T13:08:48.652Z,101840.70
2019-05-15T13:14:12.085Z,101848.02
2019-05-15T13:19:38.760Z,101846.36
2019-05-15T13:25:02.525Z,101849.93
2019-05-15T13:30:26.637Z,101851.11
2019-05-15T13:35:51.437Z,101858.98
2019-05-15T13:41:18.977Z,101849.67
2019-05-15T13:46:44.524Z,101836.66
2019-05-15T13:52:08.685Z,101824.76
2019-05-15T13:57:34.423Z,101821.18
2019-05-15T14:02:58.519Z,101812.48
2019-05-15T14:08:22.813Z,101805.90
2019-05-15T14:13:48.597Z,101802.38
2019-05-15T14:19:13.490Z,101796.02
2019-05-15T14:24:38.361Z,101792.09
2019-05-15T14:30:03.861Z,101780.70
2019-05-15T14:35:28.309Z,101771.48
2019-05-15T14:40:52.736Z,101768.04
2019-05-15T14:46:18.536Z,101755.05
2019-05-15T14:51:43.093Z,101747.39
2019-05-15T14:57:08.722Z,101743.38
2019-05-15T15:02:33.232Z,101739.09
2019-05-15T15:07:58.697Z,101732.20
2019-05-15T15:13:23.157Z,101733.97
2019-05-15T15:18:48.288Z,101735.84
2019-05-15T15:24:12.120Z,101730.95
2019-05-15T15:29:38.928Z,101732.95
2019-05-15T15:35:02.337Z,101732.54
2019-05-15T15:40:28.279Z,101726.91
2019-05-15T15:45:51.759Z,101729.24
2019-05-15T15:51:17.854Z,101730.08
2019-05-15T15:56:42.777Z,101727.85
2019-05-15T16:02:08.851Z,101718.41
2019-05-15T16:07:33.708Z,101713.64
2019-05-15T16:12:58.228Z,101705.25
2019-05-15T16:18:22.892Z,101703.05
2019-05-15T16:23:48.079Z,101703.29
2019-05-15T16:29:13.121Z,101705.75
2019-05-15T16:34:39.297Z,101717.43
2019-05-15T16:40:04.230Z,101714.09
2019-05-15T16:45:29.039Z,101709.55
2019-05-15T16:50:53.879Z,101710.48
2019-05-15T16:56:19.755Z,101715.30
2019-05-15T17:01:44.307Z,101712.63
2019-05-15T17:07:08.235Z,101713.70
2019-05-15T17:12:32.114Z,101713.98
2019-05-15T17:17:58.341Z,101717.86
2019-05-15T17:23:22.305Z,101724.04
2019-05-15T17:28:46.383Z,101728.27
2019-05-15T17:34:10.612Z,101743.44
2019-05-15T17:39:37.717Z,101740.23
2019-05-15T17:44:59.954Z,101748.03
2019-05-15T17:50:24.259Z,101745.23
2019-05-15T17:55:48.974Z,101742.39
2019-05-15T18:01:13.085Z,101741.61
2019-05-15T18:06:39.213Z,101741.61
2019-05-15T18:12:22.079Z,101744.66
2019-05-15T18:17:48.220Z,101738.28
2019-05-15T18:23:13.345Z,101731.48
2019-05-15T18:28:38.786Z,101733.19
2019-05-15T18:34:04.330Z,101735.55
2019-05-15T18:39:28.425Z,101727.47
2019-05-15T18:44:52.898Z,101722.53
2019-05-15T18:50:17.705Z,101724.05
2019-05-15T18:55:41.553Z,101720.80
2019-05-15T19:01:09.081Z,101719.28
2019-05-15T19:06:31.712Z,101722.81
2019-05-15T19:11:58.045Z,101716.36
2019-05-15T19:17:21.837Z,101711.28
2019-05-15T19:22:48.040Z,101714.44
2019-05-15T19:28:10.944Z,101707.58
2019-05-15T19:33:38.258Z,101710.30
2019-05-15T19:39:00.980Z,101713.08
2019-05-15T19:44:28.503Z,101710.92
2019-05-15T19:49:53.188Z,101704.45
2019-05-15T19:55:20.873Z,101695.54
2019-05-15T20:00:45.238Z,101691.45
2019-05-15T20:06:09.275Z,101683.50
2019-05-15T20:11:32.777Z,101682.66
2019-05-15T20:16:58.965Z,101678.36
2019-05-15T20:22:24.569Z,101673.75
2019-05-15T20:27:48.519Z,101675.53
2019-05-15T20:33:13.385Z,101664.44
2019-05-15T20:38:39.477Z,101657.22
2019-05-15T20:44:05.152Z,101659.06
2019-05-15T20:49:29.760Z,101652.05
2019-05-15T20:54:54.318Z,101646.34
2019-05-15T21:00:19.404Z,101638.96
2019-05-15T21:05:44.232Z,101635.03
2019-05-15T21:11:11.934Z,101625.40
2019-05-15T21:16:34.534Z,101625.03
2019-05-15T21:21:59.168Z,101618.42
2019-05-15T21:27:24.375Z,101605.70
2019-05-15T21:32:49.630Z,101612.61
2019-05-15T21:38:14.623Z,101604.86
2019-05-15T21:43:39.776Z,101599.52
2019-05-15T21:49:03.530Z,101587.38
2019-05-15T21:54:28.309Z,101584.75
2019-05-15T21:59:52.929Z,101581.77
2019-05-15T22:05:19.075Z,101581.36
2019-05-15T22:10:42.903Z,101576.97
2019-05-15T22:16:08.191Z,101572.13
2019-05-15T22:21:33.158Z,101569.58
2019-05-15T22:26:58.704Z,101558.91
2019-05-15T22:32:22.574Z,101558.98
2019-05-15T22:37:49.384Z,101551.89
2019-05-15T22:43:12.946Z,101539.91
2019-05-15T22:48:38.081Z,101536.22
2019-05-15T22:54:02.490Z,101529.38
2019-05-15T22:59:28.348Z,101527.08
2019-05-15T23:04:53.283Z,101519.47
2019-05-15T23:10:18.054Z,101512.06
2019-05-15T23:15:42.076Z,101502.98
2019-05-15T23:21:08.466Z,101485.55
2019-05-15T23:26:32.296Z,101493.00
2019-05-15T23:31:58.267Z,101485.92
2019-05-15T23:37:22.328Z,101479.08
2019-05-15T23:42:48.881Z,101470.50
2019-05-15T23:48:12.842Z,101468.35
2019-05-15T23:53:37.547Z,101453.20
2019-05-15T23:59:02.528Z,101448.45
